Wetterdaten: Woche 18.06.12 - 24.06.12 (KW25)
Datum Zeit Temperatur Luftfeuchte Luftdruck Niederschlag Windrichtung Sonnenschein Solar Wind
18.06.2012 00:00 17,2 C 89 % 1015,8 hPa 0,0 l/m NO 0,00 h 0 W/m 3,3 km/h (1 Bft)
18.06.2012 01:00 16,4 C 92 % 1015,3 hPa 0,0 l/m N 0,00 h 0 W/m 2,3 km/h (1 Bft)
18.06.2012 02:00 15,8 C 94 % 1014,9 hPa 0,0 l/m N-NW 0,00 h 0 W/m 4,5 km/h (1 Bft)
18.06.2012 03:00 15,2 C 95 % 1014,4 hPa 0,0 l/m N-NW 0,00 h 0 W/m 3,1 km/h (1 Bft)
18.06.2012 04:00 14,8 C 96 % 1013,7 hPa 0,0 l/m N-NW 0,00 h 0 W/m 4,0 km/h (1 Bft)
18.06.2012 05:00 14,5 C 97 % 1013,2 hPa 0,0 l/m N 0,08 h 11 W/m 1,7 km/h (1 Bft)
18.06.2012 06:00 15,0 C 97 % 1013,1 hPa 0,0 l/m N 0,00 h 72 W/m 0,5 km/h (0 Bft)
18.06.2012 07:00 16,9 C 94 % 1013,4 hPa 0,0 l/m N 0,50 h 158 W/m 0,5 km/h (0 Bft)
18.06.2012 08:00 19,0 C 89 % 1013,8 hPa 0,0 l/m S-SW 0,75 h 344 W/m 7,9 km/h (2 Bft)
18.06.2012 09:00 21,7 C 80 % 1013,6 hPa 0,0 l/m S-SW 0,83 h 496 W/m 8,7 km/h (2 Bft)
18.06.2012 10:00 24,1 C 72 % 1013,5 hPa 0,0 l/m S 1,00 h 729 W/m 9,4 km/h (2 Bft)
18.06.2012 11:00 24,6 C 61 % 1014,1 hPa 0,0 l/m W-NW 0,17 h 329 W/m 19,4 km/h (3 Bft)
18.06.2012 12:00 25,3 C 58 % 1014,1 hPa 0,0 l/m W 0,33 h 522 W/m 15,3 km/h (3 Bft)
18.06.2012 13:00 27,6 C 50 % 1014,0 hPa 0,0 l/m SW 1,00 h 912 W/m 20,4 km/h (4 Bft)
18.06.2012 14:00 29,0 C 42 % 1013,8 hPa 0,0 l/m W 1,00 h 889 W/m 17,8 km/h (3 Bft)
18.06.2012 15:00 29,4 C 40 % 1013,6 hPa 0,0 l/m W-SW 1,00 h 821 W/m 20,6 km/h (4 Bft)
18.06.2012 16:00 29,6 C 37 % 1013,3 hPa 0,0 l/m W-SW 1,00 h 712 W/m 17,4 km/h (3 Bft)
18.06.2012 17:00 29,4 C 37 % 1013,0 hPa 0,0 l/m W 1,00 h 569 W/m 16,2 km/h (3 Bft)
18.06.2012 18:00 29,0 C 41 % 1012,7 hPa 0,0 l/m W 1,00 h 397 W/m 9,6 km/h (2 Bft)
18.06.2012 19:00 27,8 C 45 % 1013,0 hPa 0,0 l/m N 0,92 h 209 W/m 9,7 km/h (2 Bft)
18.06.2012 20:00 25,3 C 53 % 1013,7 hPa 0,0 l/m N-NW 0,25 h 51 W/m 12,2 km/h (2 Bft)
18.06.2012 21:00 23,3 C 67 % 1014,6 hPa 0,0 l/m N-NO 0,00 h 8 W/m 12,4 km/h (3 Bft)
18.06.2012 22:00 20,9 C 76 % 1015,9 hPa 9,0 l/m N-NO 0,00 h 0 W/m 13,7 km/h (3 Bft)
18.06.2012 23:00 16,4 C 93 % 1016,6 hPa 0,0 l/m N-NO 0,00 h 0 W/m 7,0 km/h (2 Bft)
19.06.2012 00:00 15,9 C 96 % 1016,5 hPa 0,0 l/m N-NW 0,00 h 0 W/m 4,9 km/h (1 Bft)
19.06.2012 01:00 15,4 C 97 % 1016,5 hPa 0,0 l/m N-NO 0,00 h 0 W/m 3,1 km/h (1 Bft)
19.06.2012 02:00 15,0 C 97 % 1016,6 hPa 0,0 l/m N 0,00 h 0 W/m 2,8 km/h (1 Bft)
19.06.2012 03:00 14,9 C 98 % 1016,1 hPa 0,0 l/m N 0,00 h 0 W/m 6,3 km/h (2 Bft)
19.06.2012 04:00 14,6 C 97 % 1015,9 hPa 0,2 l/m N-NW 0,00 h 0 W/m 7,2 km/h (2 Bft)
19.06.2012 05:00 14,6 C 97 % 1015,8 hPa 0,0 l/m N-NW 0,00 h 5 W/m 5,6 km/h (1 Bft)
19.06.2012 06:00 14,9 C 97 % 1015,4 hPa 0,0 l/m N-NO 0,08 h 33 W/m 7,5 km/h (2 Bft)
19.06.2012 07:00 16,6 C 94 % 1015,1 hPa 0,0 l/m N-NO 0,92 h 207 W/m 7,8 km/h (2 Bft)
19.06.2012 08:00 18,4 C 89 % 1014,6 hPa 0,0 l/m O-NO 1,00 h 369 W/m 10,7 km/h (2 Bft)
19.06.2012 09:00 20,5 C 82 % 1014,4 hPa 0,0 l/m O-NO 1,00 h 536 W/m 11,0 km/h (2 Bft)
19.06.2012 10:00 22,7 C 74 % 1014,1 hPa 0,0 l/m O 1,00 h 676 W/m 13,8 km/h (3 Bft)
19.06.2012 11:00 23,6 C 70 % 1013,6 hPa 0,0 l/m O-NO 0,92 h 704 W/m 13,0 km/h (3 Bft)
19.06.2012 12:00 24,8 C 67 % 1013,1 hPa 0,0 l/m O-NO 1,00 h 878 W/m 14,9 km/h (3 Bft)
19.06.2012 13:00 26,2 C 62 % 1012,7 hPa 0,0 l/m O-NO 1,00 h 925 W/m 15,2 km/h (3 Bft)
19.06.2012 14:00 27,6 C 59 % 1012,1 hPa 0,0 l/m O-NO 0,92 h 824 W/m 14,9 km/h (3 Bft)
19.06.2012 15:00 27,3 C 61 % 1012,0 hPa 0,0 l/m N-NO 0,33 h 462 W/m 12,1 km/h (2 Bft)
19.06.2012 16:00 27,2 C 61 % 1011,8 hPa 0,0 l/m N-NO 0,25 h 387 W/m 12,0 km/h (2 Bft)
19.06.2012 17:00 26,5 C 65 % 1011,4 hPa 0,0 l/m N-NO 0,25 h 295 W/m 13,6 km/h (3 Bft)
19.06.2012 18:00 26,5 C 62 % 1011,4 hPa 0,0 l/m N-NO 0,58 h 272 W/m 14,4 km/h (3 Bft)
19.06.2012 19:00 25,4 C 68 % 1011,6 hPa 0,0 l/m NO 0,00 h 61 W/m 12,5 km/h (3 Bft)
19.06.2012 20:00 24,0 C 74 % 1011,3 hPa 2,2 l/m NO 0,00 h 16 W/m 10,1 km/h (2 Bft)
19.06.2012 21:00 20,5 C 91 % 1011,8 hPa 1,6 l/m S-SO 0,00 h 7 W/m 9,7 km/h (2 Bft)
19.06.2012 22:00 18,4 C 92 % 1012,5 hPa 0,0 l/m SW 0,00 h 0 W/m 6,3 km/h (2 Bft)
19.06.2012 23:00 18,2 C 95 % 1012,9 hPa 0,0 l/m NW 0,00 h 0 W/m 5,2 km/h (1 Bft)
20.06.2012 00:00 17,9 C 95 % 1012,7 hPa 0,0 l/m N 0,00 h 0 W/m 1,9 km/h (1 Bft)
20.06.2012 01:00 17,1 C 97 % 1012,3 hPa 0,0 l/m N 0,00 h 0 W/m 1,3 km/h (1 Bft)
20.06.2012 02:00 16,7 C 97 % 1012,0 hPa 0,0 l/m NW 0,00 h 0 W/m 3,3 km/h (1 Bft)
20.06.2012 03:00 16,8 C 96 % 1011,6 hPa 0,0 l/m NW 0,00 h 0 W/m 4,9 km/h (1 Bft)
20.06.2012 04:00 16,7 C 97 % 1011,4 hPa 0,0 l/m N 0,00 h 0 W/m 0,9 km/h (0 Bft)
20.06.2012 05:00 16,5 C 98 % 1011,8 hPa 0,0 l/m N 0,00 h 8 W/m 0,9 km/h (0 Bft)
20.06.2012 06:00 16,8 C 98 % 1012,0 hPa 0,0 l/m N 0,00 h 20 W/m 0,8 km/h (0 Bft)
20.06.2012 07:00 17,1 C 98 % 1012,0 hPa 0,0 l/m NW 0,00 h 67 W/m 3,9 km/h (1 Bft)
20.06.2012 08:00 17,8 C 97 % 1012,2 hPa 0,0 l/m S-SW 0,00 h 93 W/m 8,7 km/h (2 Bft)
20.06.2012 09:00 19,0 C 94 % 1011,9 hPa 0,0 l/m S-SW 0,00 h 181 W/m 10,1 km/h (2 Bft)
20.06.2012 10:00 20,3 C 90 % 1011,7 hPa 0,0 l/m SW 0,00 h 224 W/m 10,5 km/h (2 Bft)
20.06.2012 11:00 22,0 C 84 % 1011,7 hPa 0,0 l/m SW 0,08 h 402 W/m 11,7 km/h (2 Bft)
20.06.2012 12:00 22,4 C 76 % 1011,6 hPa 0,0 l/m SW 0,00 h 246 W/m 12,6 km/h (3 Bft)
20.06.2012 13:00 21,9 C 77 % 1011,4 hPa 0,0 l/m W-SW 0,00 h 152 W/m 9,1 km/h (2 Bft)
20.06.2012 14:00 21,3 C 80 % 1011,9 hPa 0,0 l/m W-SW 0,00 h 98 W/m 12,0 km/h (2 Bft)
20.06.2012 15:00 19,7 C 89 % 1012,3 hPa 0,6 l/m W-SW 0,00 h 39 W/m 11,4 km/h (2 Bft)
20.06.2012 16:00 18,6 C 94 % 1011,7 hPa 1,4 l/m SW 0,00 h 85 W/m 11,9 km/h (2 Bft)
20.06.2012 17:00 18,8 C 94 % 1010,8 hPa 0,6 l/m S-SW 0,50 h 347 W/m 10,5 km/h (2 Bft)
20.06.2012 18:00 19,9 C 87 % 1010,6 hPa 0,0 l/m SW 0,92 h 398 W/m 13,6 km/h (3 Bft)
20.06.2012 19:00 19,5 C 86 % 1010,8 hPa 0,0 l/m S-SW 0,33 h 146 W/m 9,9 km/h (2 Bft)
20.06.2012 20:00 18,6 C 90 % 1011,0 hPa 0,2 l/m S-SW 0,00 h 27 W/m 5,3 km/h (1 Bft)
20.06.2012 21:00 17,6 C 93 % 1010,9 hPa 0,0 l/m SW 0,00 h 0 W/m 5,1 km/h (1 Bft)
20.06.2012 22:00 17,1 C 95 % 1011,0 hPa 0,0 l/m W-SW 0,00 h 0 W/m 5,7 km/h (1 Bft)
20.06.2012 23:00 17,4 C 93 % 1011,1 hPa 0,0 l/m SW 0,00 h 0 W/m 5,7 km/h (1 Bft)
21.06.2012 00:00 17,0 C 95 % 1011,0 hPa 0,0 l/m N 0,00 h 0 W/m 0,0 km/h (0 Bft)
21.06.2012 01:00 16,0 C 97 % 1010,7 hPa 0,0 l/m N 0,00 h 0 W/m 0,3 km/h (0 Bft)
21.06.2012 02:00 15,1 C 98 % 1010,4 hPa 0,0 l/m N 0,00 h 0 W/m 0,0 km/h (0 Bft)
21.06.2012 03:00 14,5 C 98 % 1009,9 hPa 0,0 l/m N 0,00 h 0 W/m 0,1 km/h (0 Bft)
21.06.2012 04:00 13,9 C 99 % 1009,5 hPa 0,0 l/m N 0,00 h 0 W/m 0,4 km/h (0 Bft)
21.06.2012 05:00 13,9 C 99 % 1009,6 hPa 0,0 l/m N 0,00 h 8 W/m 0,1 km/h (0 Bft)
21.06.2012 06:00 14,3 C 99 % 1009,5 hPa 0,0 l/m N 0,00 h 27 W/m 0,9 km/h (0 Bft)
21.06.2012 07:00 14,8 C 100 % 1009,7 hPa 0,0 l/m N 0,00 h 58 W/m 1,1 km/h (0 Bft)
21.06.2012 08:00 15,6 C 100 % 1009,7 hPa 0,0 l/m SW 0,17 h 176 W/m 2,7 km/h (1 Bft)
21.06.2012 09:00 17,2 C 97 % 1009,5 hPa 0,0 l/m S-SW 0,00 h 144 W/m 4,5 km/h (1 Bft)
21.06.2012 10:00 18,3 C 91 % 1009,4 hPa 0,0 l/m S 0,42 h 414 W/m 4,1 km/h (1 Bft)
21.06.2012 11:00 20,6 C 83 % 1009,2 hPa 0,0 l/m S-SW 0,42 h 513 W/m 6,8 km/h (2 Bft)
21.06.2012 12:00 22,5 C 75 % 1008,9 hPa 0,0 l/m W 0,92 h 932 W/m 8,3 km/h (2 Bft)
21.06.2012 13:00 24,7 C 67 % 1008,6 hPa 0,0 l/m SW 1,00 h 1009 W/m 13,0 km/h (3 Bft)
21.06.2012 14:00 25,7 C 57 % 1008,2 hPa 0,0 l/m SW 1,00 h 902 W/m 13,6 km/h (3 Bft)
21.06.2012 15:00 26,5 C 50 % 1008,0 hPa 0,0 l/m SW 1,00 h 859 W/m 12,4 km/h (3 Bft)
21.06.2012 16:00 26,7 C 49 % 1007,7 hPa 0,0 l/m NW 1,00 h 728 W/m 8,5 km/h (2 Bft)
21.06.2012 17:00 26,8 C 50 % 1007,5 hPa 0,0 l/m NW 1,00 h 584 W/m 6,4 km/h (2 Bft)
21.06.2012 18:00 26,5 C 54 % 1007,4 hPa 0,0 l/m W-SW 1,00 h 389 W/m 5,5 km/h (1 Bft)
21.06.2012 19:00 25,6 C 61 % 1007,3 hPa 0,0 l/m W-SW 0,67 h 208 W/m 5,5 km/h (1 Bft)
21.06.2012 20:00 23,0 C 71 % 1007,8 hPa 0,0 l/m W-SW 0,00 h 18 W/m 4,6 km/h (1 Bft)
21.06.2012 21:00 21,2 C 73 % 1009,9 hPa 1,6 l/m W 0,00 h 0 W/m 22,4 km/h (4 Bft)
21.06.2012 22:00 16,6 C 91 % 1011,7 hPa 1,2 l/m S-SW 0,00 h 0 W/m 6,8 km/h (2 Bft)
21.06.2012 23:00 15,8 C 95 % 1013,0 hPa 0,0 l/m SW 0,00 h 0 W/m 19,8 km/h (4 Bft)
22.06.2012 00:00 15,2 C 95 % 1013,4 hPa 0,2 l/m SW 0,00 h 0 W/m 9,8 km/h (2 Bft)
22.06.2012 01:00 15,0 C 95 % 1014,0 hPa 0,0 l/m SW 0,00 h 0 W/m 2,0 km/h (1 Bft)
22.06.2012 02:00 14,9 C 96 % 1014,1 hPa 0,0 l/m SO 0,00 h 0 W/m 4,4 km/h (1 Bft)
22.06.2012 03:00 15,1 C 96 % 1014,7 hPa 0,0 l/m S-SO 0,00 h 0 W/m 5,3 km/h (1 Bft)
22.06.2012 04:00 15,1 C 95 % 1014,9 hPa 0,0 l/m S-SO 0,00 h 0 W/m 2,9 km/h (1 Bft)
22.06.2012 05:00 15,0 C 97 % 1015,3 hPa 0,0 l/m N 0,00 h 8 W/m 1,5 km/h (1 Bft)
22.06.2012 06:00 15,1 C 97 % 1015,5 hPa 0,0 l/m S 0,00 h 27 W/m 3,2 km/h (1 Bft)
22.06.2012 07:00 15,3 C 94 % 1016,0 hPa 0,0 l/m W-NW 0,00 h 41 W/m 13,0 km/h (3 Bft)
22.06.2012 08:00 15,4 C 90 % 1016,7 hPa 0,0 l/m NW 0,00 h 85 W/m 8,4 km/h (2 Bft)
22.06.2012 09:00 15,7 C 86 % 1017,3 hPa 0,0 l/m W-NW 0,00 h 138 W/m 7,8 km/h (2 Bft)
22.06.2012 10:00 16,8 C 78 % 1017,4 hPa 0,0 l/m W-NW 0,00 h 286 W/m 10,9 km/h (2 Bft)
22.06.2012 11:00 18,3 C 77 % 1017,8 hPa 0,0 l/m SW 0,00 h 291 W/m 15,6 km/h (3 Bft)
22.06.2012 12:00 19,6 C 67 % 1017,9 hPa 0,0 l/m W-NW 0,92 h 867 W/m 16,8 km/h (3 Bft)
22.06.2012 13:00 20,9 C 57 % 1017,8 hPa 0,0 l/m W 1,00 h 949 W/m 20,2 km/h (4 Bft)
22.06.2012 14:00 21,5 C 52 % 1017,6 hPa 0,0 l/m SW 1,00 h 925 W/m 18,2 km/h (3 Bft)
22.06.2012 15:00 22,3 C 49 % 1017,5 hPa 0,0 l/m SW 1,00 h 859 W/m 19,4 km/h (3 Bft)
22.06.2012 16:00 22,6 C 44 % 1017,5 hPa 0,0 l/m W-SW 1,00 h 752 W/m 18,4 km/h (3 Bft)
22.06.2012 17:00 22,5 C 45 % 1017,5 hPa 0,0 l/m W-SW 1,00 h 605 W/m 16,8 km/h (3 Bft)
22.06.2012 18:00 22,0 C 48 % 1017,7 hPa 0,0 l/m W-SW 1,00 h 437 W/m 15,7 km/h (3 Bft)
22.06.2012 19:00 20,8 C 53 % 1018,1 hPa 0,0 l/m W-SW 1,00 h 254 W/m 14,0 km/h (3 Bft)
22.06.2012 20:00 19,4 C 48 % 1019,0 hPa 0,0 l/m N 0,58 h 73 W/m 7,4 km/h (2 Bft)
22.06.2012 21:00 16,6 C 56 % 1019,6 hPa 0,0 l/m N 0,08 h 9 W/m 3,6 km/h (1 Bft)
22.06.2012 22:00 14,1 C 69 % 1020,4 hPa 0,0 l/m N 0,00 h 0 W/m 1,1 km/h (0 Bft)
22.06.2012 23:00 13,2 C 69 % 1020,8 hPa 0,0 l/m N 0,00 h 0 W/m 3,9 km/h (1 Bft)
23.06.2012 00:00 12,7 C 71 % 1021,4 hPa 0,0 l/m N 0,00 h 0 W/m 1,3 km/h (1 Bft)
23.06.2012 01:00 11,9 C 80 % 1021,8 hPa 0,0 l/m N 0,00 h 0 W/m 0,4 km/h (0 Bft)
23.06.2012 02:00 12,0 C 83 % 1021,7 hPa 0,0 l/m N 0,00 h 0 W/m 0,9 km/h (0 Bft)
23.06.2012 03:00 11,5 C 86 % 1021,6 hPa 0,0 l/m N 0,00 h 0 W/m 0,1 km/h (0 Bft)
23.06.2012 04:00 12,1 C 85 % 1021,8 hPa 0,0 l/m N 0,00 h 0 W/m 1,3 km/h (1 Bft)
23.06.2012 05:00 11,2 C 86 % 1021,9 hPa 0,0 l/m N 0,00 h 9 W/m 3,2 km/h (1 Bft)
23.06.2012 06:00 11,4 C 86 % 1022,4 hPa 0,0 l/m N 0,00 h 32 W/m 4,8 km/h (1 Bft)
23.06.2012 07:00 12,7 C 83 % 1022,5 hPa 0,0 l/m N 0,33 h 152 W/m 3,5 km/h (1 Bft)
23.06.2012 08:00 15,6 C 70 % 1022,6 hPa 0,0 l/m N 1,00 h 388 W/m 4,4 km/h (1 Bft)
23.06.2012 09:00 17,9 C 62 % 1022,5 hPa 0,0 l/m NO 1,00 h 556 W/m 9,3 km/h (2 Bft)
23.06.2012 10:00 18,7 C 56 % 1022,4 hPa 0,0 l/m O-NO 0,67 h 541 W/m 11,0 km/h (2 Bft)
23.06.2012 11:00 20,3 C 52 % 1022,3 hPa 0,0 l/m SO 0,83 h 745 W/m 11,3 km/h (2 Bft)
23.06.2012 12:00 19,9 C 54 % 1022,1 hPa 0,0 l/m S-SW 0,58 h 754 W/m 6,9 km/h (2 Bft)
23.06.2012 13:00 21,3 C 52 % 1021,5 hPa 0,0 l/m SW 0,67 h 696 W/m 10,1 km/h (2 Bft)
23.06.2012 14:00 21,2 C 51 % 1021,2 hPa 0,0 l/m SW 0,33 h 539 W/m 6,6 km/h (2 Bft)
23.06.2012 15:00 22,5 C 49 % 1020,9 hPa 0,0 l/m S-SW 0,58 h 578 W/m 12,5 km/h (3 Bft)
23.06.2012 16:00 22,8 C 47 % 1020,7 hPa 0,0 l/m SW 0,83 h 711 W/m 12,8 km/h (3 Bft)
23.06.2012 17:00 23,2 C 43 % 1020,4 hPa 0,0 l/m SW 1,00 h 583 W/m 10,9 km/h (2 Bft)
23.06.2012 18:00 22,8 C 43 % 1020,3 hPa 0,0 l/m W-SW 1,00 h 428 W/m 9,7 km/h (2 Bft)
23.06.2012 19:00 21,9 C 46 % 1020,2 hPa 0,0 l/m SW 1,00 h 241 W/m 6,5 km/h (2 Bft)
23.06.2012 20:00 19,5 C 57 % 1020,2 hPa 0,0 l/m SW 0,33 h 59 W/m 2,1 km/h (1 Bft)
23.06.2012 21:00 16,8 C 69 % 1020,4 hPa 0,0 l/m N 0,00 h 7 W/m 0,0 km/h (0 Bft)
23.06.2012 22:00 15,1 C 77 % 1020,6 hPa 0,0 l/m N 0,00 h 0 W/m 0,0 km/h (0 Bft)
23.06.2012 23:00 13,7 C 81 % 1020,5 hPa 0,0 l/m N 0,00 h 0 W/m 0,0 km/h (0 Bft)
24.06.2012 00:00 13,2 C 81 % 1020,1 hPa 0,0 l/m SW 0,00 h 0 W/m 2,0 km/h (1 Bft)
24.06.2012 01:00 11,9 C 88 % 1019,9 hPa 0,0 l/m N 0,00 h 0 W/m 0,8 km/h (0 Bft)
24.06.2012 02:00 11,7 C 89 % 1019,8 hPa 0,0 l/m N 0,00 h 0 W/m 0,5 km/h (0 Bft)
24.06.2012 03:00 11,0 C 91 % 1019,7 hPa 0,0 l/m N 0,00 h 0 W/m 0,8 km/h (0 Bft)
24.06.2012 04:00 10,0 C 94 % 1019,5 hPa 0,0 l/m N 0,00 h 0 W/m 0,3 km/h (0 Bft)
24.06.2012 05:00 9,6 C 95 % 1019,3 hPa 0,0 l/m N 0,00 h 10 W/m 0,0 km/h (0 Bft)
24.06.2012 06:00 10,2 C 95 % 1018,9 hPa 0,0 l/m N 0,00 h 68 W/m 0,3 km/h (0 Bft)
24.06.2012 07:00 12,5 C 89 % 1018,3 hPa 0,0 l/m SW 1,00 h 213 W/m 2,4 km/h (1 Bft)
24.06.2012 08:00 15,4 C 84 % 1018,2 hPa 0,0 l/m S-SW 0,67 h 272 W/m 4,5 km/h (1 Bft)
24.06.2012 09:00 18,0 C 77 % 1017,7 hPa 0,0 l/m S-SW 1,00 h 541 W/m 11,2 km/h (2 Bft)
24.06.2012 10:00 19,9 C 70 % 1017,0 hPa 0,0 l/m S-SW 1,00 h 635 W/m 15,8 km/h (3 Bft)
24.06.2012 11:00 21,5 C 60 % 1016,4 hPa 0,0 l/m W-SW 1,00 h 789 W/m 20,1 km/h (4 Bft)
24.06.2012 12:00 22,0 C 53 % 1016,0 hPa 0,0 l/m SW 1,00 h 841 W/m 25,8 km/h (4 Bft)
24.06.2012 13:00 22,5 C 44 % 1015,5 hPa 0,0 l/m W 0,83 h 631 W/m 26,6 km/h (4 Bft)
24.06.2012 14:00 22,3 C 46 % 1015,1 hPa 0,0 l/m W-SW 0,50 h 470 W/m 24,9 km/h (4 Bft)
24.06.2012 15:00 22,3 C 48 % 1014,8 hPa 0,0 l/m W-SW 0,25 h 403 W/m 26,3 km/h (4 Bft)
24.06.2012 16:00 22,7 C 49 % 1014,5 hPa 0,0 l/m W-SW 0,58 h 437 W/m 24,9 km/h (4 Bft)
24.06.2012 17:00 21,9 C 54 % 1014,2 hPa 0,0 l/m W-SW 0,00 h 145 W/m 23,3 km/h (4 Bft)
24.06.2012 18:00 21,1 C 58 % 1013,8 hPa 0,0 l/m W-SW 0,00 h 93 W/m 20,2 km/h (4 Bft)
24.06.2012 19:00 20,1 C 66 % 1013,3 hPa 0,0 l/m W-SW 0,00 h 43 W/m 14,8 km/h (3 Bft)
24.06.2012 20:00 19,3 C 70 % 1013,3 hPa 0,0 l/m W-SW 0,00 h 15 W/m 12,9 km/h (3 Bft)
24.06.2012 21:00 18,8 C 72 % 1013,2 hPa 0,0 l/m W-SW 0,00 h 5 W/m 13,4 km/h (3 Bft)
24.06.2012 22:00 18,4 C 70 % 1013,8 hPa 0,0 l/m W-SW 0,00 h 0 W/m 14,9 km/h (3 Bft)
24.06.2012 23:00 18,2 C 55 % 1014,1 hPa 0,0 l/m W-NW 0,00 h 0 W/m 16,4 km/h (3 Bft)
Min-Datum _ 24.06.12 18.06.12 21.06.12 - - - - 18.06.12
_ Min-Zeit 05:15 17:05 19:00 - - - - 00:20
Minimum _ 9,6 C 33 % 1007,1 hPa - - - - 0,0 km/h (0 Bft)
Max-Datum _ 18.06.12 21.06.12 23.06.12 18.06.12 - 18.06.12 23.06.12 21.06.12
_ Max-Zeit 16:15 02:55 08:35 22:40 - 05:35 12:15 21:35
Maximum _ 29,8 C 100 % 1022,7 hPa 9,0 l/m - 0,08 h 1102 W/m 57,9 km/h
SW (7 Bft)
Durchschnitt _ 19,0 C 76 % 1014,8 hPa #18,8 l/m SW #57:05 h 364 W/m 8,7 km/h (2 Bft)